createdAt,value
2023-05-04T00:01:50.970Z,38.78
2023-05-04T00:04:18.184Z,38.65
2023-05-04T00:06:44.929Z,38.56
2023-05-04T00:09:13.310Z,38.84
2023-05-04T00:11:40.271Z,38.74
2023-05-04T00:14:07.515Z,38.76
2023-05-04T00:16:35.253Z,38.91
2023-05-04T00:19:02.279Z,38.84
2023-05-04T00:21:28.962Z,38.93
2023-05-04T00:23:56.053Z,38.73
2023-05-04T00:26:22.803Z,38.99
2023-05-04T00:28:49.767Z,38.87
2023-05-04T00:31:19.094Z,39.06
2023-05-04T00:33:46.334Z,38.94
2023-05-04T00:36:16.047Z,39.05
2023-05-04T00:38:48.320Z,38.88
2023-05-04T00:41:15.394Z,38.98
2023-05-04T00:43:42.388Z,38.91
2023-05-04T00:46:10.364Z,39.18
2023-05-04T00:48:41.300Z,39.04
2023-05-04T00:51:08.307Z,39.25
2023-05-04T00:53:36.142Z,39.33
2023-05-04T00:56:03.680Z,39.10
2023-05-04T00:58:31.844Z,39.34
2023-05-04T01:00:58.679Z,39.43
2023-05-04T01:03:26.153Z,39.30
2023-05-04T01:06:20.332Z,39.18
2023-05-04T01:09:10.819Z,39.19
2023-05-04T01:11:41.403Z,39.13
2023-05-04T01:14:08.441Z,39.24
2023-05-04T01:16:35.171Z,39.23
2023-05-04T01:19:03.804Z,39.45
2023-05-04T01:21:31.139Z,39.25
2023-05-04T01:23:58.830Z,39.43
2023-05-04T01:26:30.183Z,39.66
2023-05-04T01:29:18.671Z,39.61
2023-05-04T01:31:46.149Z,39.45
2023-05-04T01:34:13.661Z,39.49
2023-05-04T01:36:40.522Z,39.39
2023-05-04T01:39:08.478Z,39.36
2023-05-04T01:41:36.035Z,39.36
2023-05-04T01:44:04.065Z,39.54
2023-05-04T01:46:30.845Z,39.54
2023-05-04T01:48:57.865Z,39.47
2023-05-04T01:51:24.660Z,39.41
2023-05-04T01:53:51.764Z,39.62
2023-05-04T01:56:18.467Z,39.55
2023-05-04T01:58:45.594Z,39.69
2023-05-04T02:01:12.306Z,39.58
2023-05-04T02:03:39.792Z,39.65
2023-05-04T02:06:07.135Z,39.67
2023-05-04T02:08:34.182Z,39.63
2023-05-04T02:11:00.907Z,39.72
2023-05-04T02:13:27.901Z,39.94
2023-05-04T02:15:54.627Z,39.62
2023-05-04T02:18:21.683Z,39.82
2023-05-04T02:20:48.447Z,39.72
2023-05-04T02:23:15.431Z,39.71
2023-05-04T02:25:42.173Z,39.86
2023-05-04T02:28:09.187Z,39.68
2023-05-04T02:30:35.908Z,39.84
2023-05-04T02:33:02.971Z,39.76
2023-05-04T02:35:29.821Z,39.81
2023-05-04T02:37:56.833Z,39.96
2023-05-04T02:40:23.567Z,39.79
2023-05-04T02:42:50.569Z,39.86
2023-05-04T02:45:17.289Z,40.02
2023-05-04T02:47:44.333Z,39.79
2023-05-04T02:50:11.148Z,39.96
2023-05-04T02:52:38.207Z,40.00
2023-05-04T02:55:05.330Z,39.95
2023-05-04T02:57:32.067Z,39.95
2023-05-04T02:59:59.051Z,40.13
2023-05-04T03:02:25.816Z,40.04
2023-05-04T03:04:52.901Z,40.17
2023-05-04T03:07:19.620Z,40.05
2023-05-04T03:09:47.973Z,40.24
2023-05-04T03:12:14.822Z,40.41
2023-05-04T03:14:41.875Z,40.31
2023-05-04T03:17:08.739Z,40.25
2023-05-04T03:19:36.011Z,40.03
2023-05-04T03:22:03.009Z,40.06
2023-05-04T03:24:30.012Z,40.34
2023-05-04T03:26:57.389Z,40.31
2023-05-04T03:29:24.552Z,40.20
2023-05-04T03:31:51.309Z,40.36
2023-05-04T03:34:21.499Z,40.43
2023-05-04T03:36:49.002Z,40.38
2023-05-04T03:39:19.175Z,40.39
2023-05-04T03:41:45.973Z,40.26
2023-05-04T03:44:12.986Z,40.31
2023-05-04T03:46:39.732Z,40.40
2023-05-04T03:49:06.741Z,40.33
2023-05-04T03:51:33.447Z,40.57
2023-05-04T03:54:00.960Z,40.56
2023-05-04T03:56:27.711Z,40.59
2023-05-04T03:58:54.874Z,40.79
2023-05-04T04:01:21.614Z,40.47
2023-05-04T04:03:48.750Z,40.43
2023-05-04T04:06:15.942Z,40.39
2023-05-04T04:08:43.055Z,40.21
2023-05-04T04:11:09.825Z,40.27
2023-05-04T04:13:36.865Z,40.57
2023-05-04T04:16:03.670Z,40.27
2023-05-04T04:18:30.693Z,40.42
2023-05-04T04:20:57.473Z,40.62
2023-05-04T04:23:24.952Z,40.35
2023-05-04T04:25:53.784Z,40.62
2023-05-04T04:28:21.317Z,40.44
2023-05-04T04:30:48.283Z,40.71
2023-05-04T04:33:16.458Z,40.30
2023-05-04T04:35:43.261Z,40.55
2023-05-04T04:38:10.392Z,40.51
2023-05-04T04:40:37.209Z,40.63
2023-05-04T04:43:04.785Z,40.67
2023-05-04T04:45:33.616Z,40.27
2023-05-04T04:48:01.122Z,40.35
2023-05-04T04:50:29.125Z,40.52
2023-05-04T04:52:56.278Z,40.53
2023-05-04T04:55:25.994Z,40.54
2023-05-04T04:57:53.295Z,40.34
2023-05-04T05:00:20.108Z,40.17
2023-05-04T05:02:47.213Z,39.94
2023-05-04T05:05:14.019Z,39.83
2023-05-04T05:07:41.266Z,40.03
2023-05-04T05:10:08.751Z,39.93
2023-05-04T05:12:35.945Z,39.72
2023-05-04T05:15:04.567Z,39.75
2023-05-04T05:17:31.749Z,39.80
2023-05-04T05:19:58.463Z,39.81
2023-05-04T05:22:25.444Z,39.64
2023-05-04T05:24:52.163Z,39.50
2023-05-04T05:27:19.185Z,39.53
2023-05-04T05:29:45.920Z,39.62
2023-05-04T05:32:12.993Z,39.57
2023-05-04T05:34:39.709Z,39.46
2023-05-04T05:37:07.023Z,39.35
2023-05-04T05:39:34.175Z,39.30
2023-05-04T05:42:01.954Z,39.32
2023-05-04T05:44:28.886Z,39.32
2023-05-04T05:46:56.185Z,39.30
2023-05-04T05:49:22.939Z,39.12
2023-05-04T05:51:50.160Z,39.38
2023-05-04T05:54:17.399Z,39.28
2023-05-04T05:56:44.456Z,39.25
2023-05-04T05:59:11.250Z,39.23
2023-05-04T06:01:38.559Z,39.26
2023-05-04T06:04:05.598Z,39.06
2023-05-04T06:06:33.022Z,39.03
2023-05-04T06:09:00.429Z,38.73
2023-05-04T06:11:27.572Z,38.93
2023-05-04T06:13:54.477Z,39.14
2023-05-04T06:16:21.568Z,39.05
2023-05-04T06:18:48.529Z,39.01
2023-05-04T06:21:15.748Z,38.98
2023-05-04T06:23:42.521Z,39.04
2023-05-04T06:26:09.597Z,38.81
2023-05-04T06:28:36.343Z,39.01
2023-05-04T06:31:03.805Z,38.93
2023-05-04T06:33:30.607Z,38.73
2023-05-04T06:35:58.085Z,38.74
2023-05-04T06:38:25.011Z,38.85
2023-05-04T06:40:52.051Z,38.95
2023-05-04T06:43:18.830Z,38.67
2023-05-04T06:45:45.896Z,38.80
2023-05-04T06:48:12.746Z,38.63
2023-05-04T06:50:39.929Z,38.83
2023-05-04T06:53:08.225Z,38.48
2023-05-04T06:55:36.253Z,38.88
2023-05-04T06:58:03.355Z,38.78
2023-05-04T07:00:30.592Z,38.54
2023-05-04T07:02:57.345Z,38.43
2023-05-04T07:05:25.225Z,38.61
2023-05-04T07:07:52.047Z,38.47
2023-05-04T07:10:19.663Z,38.43
2023-05-04T07:12:47.042Z,38.13
2023-05-04T07:15:14.157Z,38.11
2023-05-04T07:17:41.072Z,38.14
2023-05-04T07:20:08.688Z,38.02
2023-05-04T07:22:35.475Z,38.19
2023-05-04T07:25:03.174Z,37.88
2023-05-04T07:27:30.060Z,37.84
2023-05-04T07:29:57.371Z,37.73
2023-05-04T07:32:24.163Z,38.05
2023-05-04T07:34:51.251Z,37.75
2023-05-04T07:37:17.993Z,37.94
2023-05-04T07:39:45.208Z,37.63
2023-05-04T07:42:12.031Z,37.53
2023-05-04T07:44:39.128Z,37.45
2023-05-04T07:47:05.838Z,37.62
2023-05-04T07:49:33.015Z,37.86
2023-05-04T07:51:59.829Z,37.40
2023-05-04T07:54:26.826Z,37.73
2023-05-04T07:56:53.676Z,37.35
2023-05-04T07:59:21.755Z,37.29
2023-05-04T08:01:48.594Z,37.52
2023-05-04T08:04:16.004Z,37.58
2023-05-04T08:06:42.834Z,37.62
2023-05-04T08:09:10.165Z,37.24
2023-05-04T08:11:37.954Z,37.54
2023-05-04T08:14:05.361Z,37.02
2023-05-04T08:16:32.440Z,37.21
2023-05-04T08:19:00.103Z,37.24
2023-05-04T08:21:27.174Z,37.11
2023-05-04T08:23:54.292Z,37.06
2023-05-04T08:26:21.108Z,37.14
2023-05-04T08:28:48.433Z,36.75
2023-05-04T08:31:15.873Z,36.63
2023-05-04T08:33:42.976Z,36.42
2023-05-04T08:36:09.771Z,36.38
2023-05-04T08:38:36.882Z,36.48
2023-05-04T08:41:04.332Z,36.69
2023-05-04T08:43:37.813Z,36.40
2023-05-04T08:46:05.021Z,36.71
2023-05-04T08:48:33.743Z,36.47
2023-05-04T08:51:01.016Z,36.82
2023-05-04T08:53:28.128Z,36.57
2023-05-04T08:55:56.009Z,36.38
2023-05-04T08:58:23.171Z,36.26
2023-05-04T09:00:50.091Z,36.47
2023-05-04T09:03:17.437Z,36.64
2023-05-04T09:05:45.003Z,36.73
2023-05-04T09:08:12.130Z,36.54
2023-05-04T09:10:38.849Z,36.37
2023-05-04T09:13:05.876Z,36.54
2023-05-04T09:15:33.207Z,36.06
2023-05-04T09:18:12.236Z,36.79
2023-05-04T09:20:49.347Z,36.37
2023-05-04T09:23:17.941Z,36.01
2023-05-04T09:25:52.154Z,36.14
2023-05-04T09:28:19.909Z,35.93
2023-05-04T09:30:48.132Z,36.29
2023-05-04T09:33:25.638Z,36.57
2023-05-04T09:35:52.353Z,36.02
2023-05-04T09:38:29.236Z,36.17
2023-05-04T09:40:56.159Z,36.30
2023-05-04T09:43:24.495Z,35.96
2023-05-04T09:45:51.554Z,35.93
2023-05-04T09:48:19.269Z,36.09
2023-05-04T09:51:06.366Z,35.80
2023-05-04T09:53:33.459Z,35.93
2023-05-04T09:56:18.657Z,35.66
2023-05-04T09:58:47.519Z,35.24
2023-05-04T10:01:14.294Z,35.14
2023-05-04T10:03:42.467Z,35.22
2023-05-04T10:06:09.502Z,35.28
2023-05-04T10:08:36.587Z,35.11
2023-05-04T10:11:03.346Z,35.39
2023-05-04T10:13:30.596Z,34.93
2023-05-04T10:16:00.239Z,34.77
2023-05-04T10:18:55.350Z,34.34
2023-05-04T10:21:25.105Z,33.91
2023-05-04T10:24:07.150Z,34.01
2023-05-04T10:26:51.423Z,34.08
2023-05-04T10:29:23.612Z,32.76
2023-05-04T10:31:50.951Z,34.01
2023-05-04T10:34:47.605Z,33.96
2023-05-04T10:37:22.250Z,33.20
2023-05-04T10:39:55.854Z,34.55
2023-05-04T10:42:22.794Z,33.91
2023-05-04T10:44:56.509Z,33.54
2023-05-04T10:47:33.270Z,33.31
2023-05-04T10:50:11.222Z,33.74
2023-05-04T10:52:50.433Z,33.56
2023-05-04T10:55:17.907Z,33.61
2023-05-04T10:57:51.816Z,32.76
2023-05-04T11:00:19.152Z,32.35
2023-05-04T11:02:49.155Z,32.25
2023-05-04T11:05:20.056Z,32.30
2023-05-04T11:07:47.458Z,31.75
2023-05-04T11:10:25.115Z,30.64
2023-05-04T11:12:52.728Z,30.55
2023-05-04T11:15:21.698Z,30.57
2023-05-04T11:17:49.567Z,31.32
2023-05-04T11:20:23.797Z,31.08
2023-05-04T11:22:50.835Z,30.97
2023-05-04T11:25:18.060Z,30.33
2023-05-04T11:27:48.825Z,29.55
2023-05-04T11:30:17.352Z,29.14
2023-05-04T11:32:46.702Z,29.06
2023-05-04T11:35:22.945Z,29.03
2023-05-04T11:37:50.699Z,29.07
2023-05-04T11:40:23.581Z,29.33
2023-05-04T11:42:50.336Z,29.63
2023-05-04T11:45:24.339Z,29.83
2023-05-04T11:47:51.714Z,29.39
2023-05-04T11:50:20.521Z,29.60
2023-05-04T11:52:47.417Z,29.67
2023-05-04T11:55:33.233Z,29.86
2023-05-04T11:58:01.177Z,30.42
2023-05-04T12:00:47.075Z,30.49
2023-05-04T12:03:15.769Z,29.86
2023-05-04T12:05:50.949Z,29.20
2023-05-04T12:08:38.117Z,29.09
2023-05-04T12:11:11.589Z,28.67
2023-05-04T12:13:38.399Z,28.45
2023-05-04T12:16:23.594Z,28.46
2023-05-04T12:18:50.347Z,28.83
2023-05-04T12:21:18.911Z,28.77
2023-05-04T12:23:45.988Z,29.03
2023-05-04T12:26:13.468Z,29.02
2023-05-04T12:28:42.395Z,29.77
2023-05-04T12:31:10.254Z,29.31
2023-05-04T12:33:37.177Z,29.70
2023-05-04T12:36:05.867Z,29.89
2023-05-04T12:38:32.756Z,29.50
2023-05-04T12:41:02.390Z,30.04
2023-05-04T12:43:29.156Z,29.60
2023-05-04T12:45:56.409Z,28.85
2023-05-04T12:48:23.168Z,28.91
2023-05-04T12:50:50.878Z,29.33
2023-05-04T12:53:18.503Z,29.01
2023-05-04T12:55:45.830Z,28.72
2023-05-04T12:58:12.826Z,29.09
2023-05-04T13:00:40.400Z,29.74
2023-05-04T13:03:07.818Z,29.78
2023-05-04T13:05:34.946Z,30.20
2023-05-04T13:08:01.661Z,30.50
2023-05-04T13:10:28.741Z,30.68
2023-05-04T13:12:55.570Z,31.08
2023-05-04T13:15:22.699Z,30.56
2023-05-04T13:17:49.700Z,30.15
2023-05-04T13:20:16.838Z,29.80
2023-05-04T13:22:47.940Z,30.21
2023-05-04T13:25:15.112Z,30.35
2023-05-04T13:27:41.919Z,29.74
2023-05-04T13:30:10.892Z,30.18
2023-05-04T13:32:37.899Z,29.88
2023-05-04T13:35:05.780Z,30.27
2023-05-04T13:37:32.704Z,30.27
2023-05-04T13:40:01.553Z,30.73
2023-05-04T13:42:28.486Z,30.65
2023-05-04T13:44:55.641Z,30.92
2023-05-04T13:47:23.691Z,30.85
2023-05-04T13:49:50.987Z,30.83
2023-05-04T13:52:17.710Z,30.41
2023-05-04T13:54:44.768Z,30.30
2023-05-04T13:57:11.508Z,30.65
2023-05-04T13:59:38.761Z,31.01
2023-05-04T14:02:05.721Z,30.57
2023-05-04T14:04:32.857Z,31.04
2023-05-04T14:06:59.611Z,30.97
2023-05-04T14:09:26.765Z,30.98
2023-05-04T14:11:53.981Z,30.22
2023-05-04T14:14:22.259Z,30.45
2023-05-04T14:16:49.060Z,30.76
2023-05-04T14:19:16.220Z,30.68
2023-05-04T14:21:42.946Z,30.85
2023-05-04T14:24:10.070Z,30.67
2023-05-04T14:26:36.831Z,30.75
2023-05-04T14:29:04.027Z,30.76
2023-05-04T14:31:30.829Z,30.92
2023-05-04T14:33:57.917Z,30.84
2023-05-04T14:36:24.730Z,31.42
2023-05-04T14:38:51.833Z,31.73
2023-05-04T14:41:18.679Z,31.90
2023-05-04T14:43:45.854Z,31.87
2023-05-04T14:46:15.665Z,31.00
2023-05-04T14:48:42.821Z,30.64
2023-05-04T14:51:09.540Z,31.15
2023-05-04T14:53:39.290Z,31.00
2023-05-04T14:56:06.934Z,31.02
2023-05-04T14:58:33.987Z,31.32
2023-05-04T15:01:00.931Z,31.23
2023-05-04T15:03:28.686Z,31.49
2023-05-04T15:05:55.666Z,31.75
2023-05-04T15:08:22.802Z,31.14
2023-05-04T15:10:49.535Z,31.13
2023-05-04T15:13:17.867Z,30.64
2023-05-04T15:15:44.809Z,29.76
2023-05-04T15:18:12.238Z,30.91
2023-05-04T15:20:38.984Z,30.75
2023-05-04T15:23:10.656Z,30.60
2023-05-04T15:25:38.808Z,31.61
2023-05-04T15:28:10.468Z,32.06
2023-05-04T15:30:40.876Z,32.06
2023-05-04T15:33:08.271Z,31.21
2023-05-04T15:35:36.056Z,30.99
2023-05-04T15:38:03.220Z,32.14
2023-05-04T15:40:30.035Z,32.17
2023-05-04T15:42:57.234Z,32.16
2023-05-04T15:45:24.021Z,32.08
2023-05-04T15:47:51.789Z,32.18
2023-05-04T15:50:18.581Z,31.47
2023-05-04T15:52:45.666Z,31.54
2023-05-04T15:55:23.762Z,31.72
2023-05-04T15:57:52.442Z,32.40
2023-05-04T16:00:19.774Z,32.67
2023-05-04T16:02:46.950Z,32.27
2023-05-04T16:05:13.733Z,32.49
2023-05-04T16:07:40.810Z,32.60
2023-05-04T16:10:08.400Z,32.77
2023-05-04T16:12:35.832Z,32.73
2023-05-04T16:15:02.606Z,32.62
2023-05-04T16:17:30.876Z,32.34
2023-05-04T16:19:57.648Z,32.39
2023-05-04T16:22:24.711Z,32.56
2023-05-04T16:24:51.495Z,32.87
2023-05-04T16:27:18.539Z,32.37
2023-05-04T16:29:45.368Z,32.57
2023-05-04T16:32:12.340Z,32.69
2023-05-04T16:34:39.054Z,33.08
2023-05-04T16:37:06.146Z,32.84
2023-05-04T16:39:34.367Z,32.65
2023-05-04T16:42:02.308Z,33.12
2023-05-04T16:44:29.773Z,32.94
2023-05-04T16:46:57.694Z,32.40
2023-05-04T16:49:24.403Z,32.21
2023-05-04T16:51:53.658Z,31.29
2023-05-04T16:54:21.106Z,32.25
2023-05-04T16:56:48.261Z,32.52
2023-05-04T16:59:15.078Z,32.45
2023-05-04T17:01:45.601Z,32.49
2023-05-04T17:04:12.372Z,32.88
2023-05-04T17:06:39.541Z,32.76
2023-05-04T17:09:07.060Z,33.18
2023-05-04T17:11:34.625Z,33.24
2023-05-04T17:14:01.434Z,33.14
2023-05-04T17:16:28.580Z,33.09
2023-05-04T17:18:55.652Z,32.50
2023-05-04T17:21:22.854Z,32.97
2023-05-04T17:23:50.759Z,32.58
2023-05-04T17:26:17.862Z,32.54
2023-05-04T17:28:44.691Z,32.30
2023-05-04T17:31:15.005Z,32.07
2023-05-04T17:33:41.896Z,32.08
2023-05-04T17:36:12.460Z,32.18
2023-05-04T17:38:39.789Z,32.29
2023-05-04T17:41:07.436Z,32.20
2023-05-04T17:43:34.306Z,31.54
2023-05-04T17:46:02.182Z,32.46
2023-05-04T17:48:31.265Z,32.07
2023-05-04T17:50:58.672Z,32.62
2023-05-04T17:53:28.952Z,32.92
2023-05-04T17:55:56.157Z,32.36
2023-05-04T17:58:23.478Z,32.33
2023-05-04T18:00:53.241Z,32.08
2023-05-04T18:03:20.367Z,31.93
2023-05-04T18:05:47.619Z,32.25
2023-05-04T18:08:14.496Z,32.02
2023-05-04T18:10:41.650Z,32.28
2023-05-04T18:13:08.595Z,31.94
2023-05-04T18:15:35.828Z,32.19
2023-05-04T18:18:02.865Z,32.08
2023-05-04T18:20:30.152Z,32.08
2023-05-04T18:22:56.950Z,32.47
2023-05-04T18:25:24.176Z,32.22
2023-05-04T18:27:50.982Z,32.82
2023-05-04T18:30:18.216Z,32.38
2023-05-04T18:32:46.679Z,32.62
2023-05-04T18:35:17.034Z,32.25
2023-05-04T18:37:43.863Z,32.82
2023-05-04T18:40:11.565Z,32.80
2023-05-04T18:42:38.399Z,32.67
2023-05-04T18:45:06.986Z,32.79
2023-05-04T18:47:33.908Z,32.46
2023-05-04T18:50:01.466Z,32.94
2023-05-04T18:52:28.362Z,32.71
2023-05-04T18:54:56.109Z,32.62
2023-05-04T18:57:23.523Z,33.06
2023-05-04T18:59:51.633Z,33.06
2023-05-04T19:02:18.666Z,32.74
2023-05-04T19:04:47.145Z,33.07
2023-05-04T19:07:15.331Z,33.21
2023-05-04T19:09:47.262Z,32.80
2023-05-04T19:12:14.331Z,33.00
2023-05-04T19:14:43.493Z,33.28
2023-05-04T19:17:11.246Z,32.96
2023-05-04T19:19:38.434Z,32.81
2023-05-04T19:22:05.293Z,33.32
2023-05-04T19:24:34.430Z,32.96
2023-05-04T19:27:01.355Z,33.15
2023-05-04T19:29:28.590Z,32.91
2023-05-04T19:31:55.651Z,33.45
2023-05-04T19:34:23.339Z,33.38
2023-05-04T19:36:50.166Z,33.36
2023-05-04T19:39:19.961Z,33.10
2023-05-04T19:41:47.504Z,33.18
2023-05-04T19:44:15.285Z,33.45
2023-05-04T19:46:42.734Z,33.37
2023-05-04T19:49:09.883Z,33.31
2023-05-04T19:51:38.454Z,33.07
2023-05-04T19:54:05.636Z,33.28
2023-05-04T19:56:32.621Z,33.00
2023-05-04T19:58:59.811Z,33.46
2023-05-04T20:01:26.798Z,33.54
2023-05-04T20:03:54.011Z,33.64
2023-05-04T20:06:22.178Z,33.64
2023-05-04T20:08:50.853Z,33.83
2023-05-04T20:11:17.728Z,33.62
2023-05-04T20:13:45.630Z,33.76
2023-05-04T20:16:13.131Z,33.84
2023-05-04T20:18:40.532Z,33.67
2023-05-04T20:21:07.329Z,33.55
2023-05-04T20:23:34.427Z,33.52
2023-05-04T20:26:03.027Z,33.78
2023-05-04T20:28:32.579Z,33.56
2023-05-04T20:31:00.040Z,33.60
2023-05-04T20:33:27.135Z,33.69
2023-05-04T20:35:54.362Z,33.95
2023-05-04T20:38:21.478Z,33.64
2023-05-04T20:40:49.364Z,34.08
2023-05-04T20:43:16.930Z,33.78
2023-05-04T20:45:43.738Z,33.81
2023-05-04T20:48:10.994Z,33.88
2023-05-04T20:50:39.923Z,34.29
2023-05-04T20:53:07.021Z,34.09
2023-05-04T20:55:34.190Z,34.26
2023-05-04T20:58:01.278Z,33.96
2023-05-04T21:00:28.048Z,34.39
2023-05-04T21:02:55.156Z,34.46
2023-05-04T21:05:21.982Z,34.29
2023-05-04T21:07:51.948Z,34.50
2023-05-04T21:10:21.420Z,34.42
2023-05-04T21:12:48.540Z,34.32
2023-05-04T21:15:15.366Z,34.29
2023-05-04T21:17:42.579Z,34.21
2023-05-04T21:20:10.226Z,34.64
2023-05-04T21:22:37.475Z,34.56
2023-05-04T21:25:04.521Z,34.78
2023-05-04T21:27:31.607Z,34.79
2023-05-04T21:29:58.386Z,34.46
2023-05-04T21:32:25.519Z,34.88
2023-05-04T21:34:55.283Z,34.43
2023-05-04T21:37:22.434Z,34.43
2023-05-04T21:39:53.773Z,34.98
2023-05-04T21:42:20.804Z,34.50
2023-05-04T21:44:47.533Z,34.48
2023-05-04T21:47:14.603Z,34.62
2023-05-04T21:49:41.328Z,34.56
2023-05-04T21:52:08.381Z,34.88
2023-05-04T21:54:35.130Z,34.94
2023-05-04T21:57:03.491Z,34.78
2023-05-04T21:59:30.266Z,34.76
2023-05-04T22:01:57.303Z,34.90
2023-05-04T22:04:24.167Z,34.82
2023-05-04T22:06:51.548Z,34.88
2023-05-04T22:09:19.065Z,34.89
2023-05-04T22:11:46.660Z,35.00
2023-05-04T22:14:13.642Z,35.20
2023-05-04T22:16:40.991Z,35.14
2023-05-04T22:19:07.714Z,34.94
2023-05-04T22:21:34.794Z,34.98
2023-05-04T22:24:01.654Z,35.30
2023-05-04T22:26:28.654Z,35.14
2023-05-04T22:28:55.392Z,34.91
2023-05-04T22:31:22.470Z,35.16
2023-05-04T22:33:49.191Z,35.31
2023-05-04T22:36:16.296Z,35.13
2023-05-04T22:38:43.442Z,35.30
2023-05-04T22:41:10.523Z,35.12
2023-05-04T22:43:37.284Z,35.36
2023-05-04T22:46:04.424Z,35.16
2023-05-04T22:48:32.488Z,35.49
2023-05-04T22:51:01.195Z,35.27
2023-05-04T22:53:27.902Z,35.08
2023-05-04T22:55:54.931Z,35.54
2023-05-04T22:58:22.183Z,35.31
2023-05-04T23:00:50.874Z,35.50
2023-05-04T23:03:17.776Z,35.47
2023-05-04T23:05:45.119Z,35.69
2023-05-04T23:08:11.873Z,35.65
2023-05-04T23:10:38.933Z,35.35
2023-05-04T23:13:05.711Z,35.58
2023-05-04T23:15:33.058Z,35.92
2023-05-04T23:18:00.228Z,35.46
2023-05-04T23:20:27.641Z,35.94
2023-05-04T23:22:54.408Z,35.50
2023-05-04T23:25:21.486Z,35.50
2023-05-04T23:27:48.240Z,35.42
2023-05-04T23:30:15.714Z,35.61
2023-05-04T23:32:42.487Z,35.52
2023-05-04T23:35:09.830Z,35.54
2023-05-04T23:37:36.794Z,35.66
2023-05-04T23:40:04.136Z,35.85
2023-05-04T23:42:30.908Z,35.97
2023-05-04T23:44:57.951Z,35.80
2023-05-04T23:47:24.742Z,35.68
2023-05-04T23:49:51.903Z,36.05
2023-05-04T23:52:18.663Z,36.23
2023-05-04T23:54:46.647Z,35.84
2023-05-04T23:57:13.409Z,35.93
2023-05-04T23:59:40.527Z,36.02
